createdAt,value
2017-05-10T00:02:15.165Z,9.30
2017-05-10T00:04:44.121Z,9.74
2017-05-10T00:07:13.052Z,11.76
2017-05-10T00:09:42.318Z,6.36
2017-05-10T00:12:12.031Z,7.16
2017-05-10T00:14:41.750Z,6.72
2017-05-10T00:17:11.015Z,10.56
2017-05-10T00:19:39.952Z,5.88
2017-05-10T00:22:08.907Z,6.80
2017-05-10T00:24:38.946Z,6.72
2017-05-10T00:27:07.887Z,11.62
2017-05-10T00:29:36.840Z,10.30
2017-05-10T00:32:06.099Z,6.88
2017-05-10T00:34:35.091Z,7.24
2017-05-10T00:37:04.764Z,4.74
2017-05-10T00:39:33.997Z,5.00
2017-05-10T00:42:03.727Z,13.64
2017-05-10T00:44:32.674Z,3.16
2017-05-10T00:47:01.907Z,4.00
2017-05-10T00:49:30.841Z,14.22
2017-05-10T00:51:59.792Z,8.64
2017-05-10T00:54:29.174Z,9.72
2017-05-10T00:56:58.103Z,11.16
2017-05-10T00:59:27.059Z,5.62
2017-05-10T01:01:56.383Z,8.76
2017-05-10T01:04:25.316Z,7.54
2017-05-10T01:06:54.274Z,4.50
2017-05-10T01:09:23.637Z,2.80
2017-05-10T01:11:52.607Z,9.04
2017-05-10T01:14:21.563Z,6.00
2017-05-10T01:16:50.935Z,6.70
2017-05-10T01:19:20.622Z,8.04
2017-05-10T01:21:49.574Z,5.74
2017-05-10T01:24:18.931Z,5.34
2017-05-10T01:26:48.624Z,15.88
2017-05-10T01:29:17.556Z,8.80
2017-05-10T01:31:46.794Z,6.00
2017-05-10T01:34:15.731Z,6.34
2017-05-10T01:36:45.425Z,8.24
2017-05-10T01:39:15.052Z,15.38
2017-05-10T01:41:43.982Z,5.54
2017-05-10T01:44:12.916Z,9.42
2017-05-10T01:46:42.918Z,3.00
2017-05-10T01:49:11.845Z,9.04
2017-05-10T01:51:40.885Z,6.64
2017-05-10T01:54:10.124Z,12.48
2017-05-10T01:56:39.803Z,5.28
2017-05-10T01:59:08.762Z,5.86
2017-05-10T02:01:38.042Z,12.98
2017-05-10T02:04:07.027Z,7.14
2017-05-10T02:06:35.967Z,15.56
2017-05-10T02:09:05.207Z,11.08
2017-05-10T02:11:34.911Z,6.94
2017-05-10T02:14:03.860Z,10.40
2017-05-10T02:16:33.204Z,10.74
2017-05-10T02:19:02.897Z,5.74
2017-05-10T02:21:32.909Z,22.44
2017-05-10T02:24:01.851Z,7.94
2017-05-10T02:26:30.790Z,9.02
2017-05-10T02:29:00.106Z,9.76
2017-05-10T02:31:29.821Z,6.20
2017-05-10T02:33:58.750Z,9.34
2017-05-10T02:36:28.075Z,12.00
2017-05-10T02:38:57.071Z,10.28
2017-05-10T02:41:26.775Z,9.12
2017-05-10T02:43:56.132Z,9.96
2017-05-10T02:46:25.066Z,12.08
2017-05-10T02:48:54.026Z,10.88
2017-05-10T02:51:23.310Z,8.76
2017-05-10T02:53:52.270Z,5.36
2017-05-10T02:56:21.968Z,12.98
2017-05-10T02:58:51.267Z,12.62
2017-05-10T03:01:20.200Z,10.50
2017-05-10T03:03:49.159Z,13.02
2017-05-10T03:06:19.125Z,13.20
2017-05-10T03:08:48.099Z,8.60
2017-05-10T03:11:17.027Z,6.40
2017-05-10T03:13:46.353Z,9.68
2017-05-10T03:16:16.047Z,13.00
2017-05-10T03:18:44.989Z,9.90
2017-05-10T03:21:14.231Z,6.64
2017-05-10T03:23:43.177Z,14.78
2017-05-10T03:26:12.109Z,17.06
2017-05-10T03:28:41.417Z,9.32
2017-05-10T03:31:10.364Z,10.68
2017-05-10T03:33:39.296Z,30.22
2017-05-10T03:36:08.603Z,5.96
2017-05-10T03:38:37.568Z,3.96
2017-05-10T03:41:06.534Z,5.46
2017-05-10T03:43:35.896Z,8.98
2017-05-10T03:46:05.590Z,11.04
2017-05-10T03:48:34.528Z,13.52
2017-05-10T03:51:03.790Z,14.82
2017-05-10T03:53:33.508Z,6.98
2017-05-10T03:56:03.502Z,9.06
2017-05-10T03:58:32.438Z,8.54
2017-05-10T04:01:01.379Z,6.52
2017-05-10T04:03:30.711Z,10.38
2017-05-10T04:06:00.386Z,7.26
2017-05-10T04:08:29.320Z,9.64
2017-05-10T04:10:58.548Z,5.14
2017-05-10T04:13:27.493Z,4.72
2017-05-10T04:15:57.178Z,11.30
2017-05-10T04:18:26.430Z,6.60
2017-05-10T04:20:55.383Z,10.62
2017-05-10T04:23:25.081Z,11.46
2017-05-10T04:25:54.576Z,10.74
2017-05-10T04:28:23.548Z,5.10
2017-05-10T04:30:52.491Z,7.14
2017-05-10T04:33:22.591Z,11.56
2017-05-10T04:35:51.523Z,4.54
2017-05-10T04:38:20.495Z,7.56
2017-05-10T04:40:50.590Z,6.36
2017-05-10T04:43:20.373Z,7.00
2017-05-10T04:45:49.333Z,10.80
2017-05-10T04:48:18.707Z,10.62
2017-05-10T04:50:48.733Z,10.44
2017-05-10T04:53:18.719Z,4.64
2017-05-10T04:55:47.673Z,11.54
2017-05-10T04:58:16.634Z,5.88
2017-05-10T05:00:45.931Z,9.64
2017-05-10T05:03:14.887Z,8.12
2017-05-10T05:05:43.823Z,11.86
2017-05-10T05:08:13.119Z,13.10
2017-05-10T05:10:42.070Z,8.80
2017-05-10T05:13:11.009Z,11.30
2017-05-10T05:15:40.363Z,6.44
2017-05-10T05:18:09.313Z,11.00
2017-05-10T05:20:38.265Z,7.38
2017-05-10T05:23:08.389Z,9.72
2017-05-10T05:25:38.067Z,6.68
2017-05-10T05:28:07.041Z,5.24
2017-05-10T05:30:36.362Z,18.22
2017-05-10T05:33:05.375Z,9.08
2017-05-10T05:35:35.051Z,6.68
2017-05-10T05:38:04.367Z,9.14
2017-05-10T05:40:34.084Z,8.52
2017-05-10T05:43:03.050Z,11.18
2017-05-10T05:45:32.376Z,7.86
2017-05-10T05:48:01.301Z,9.78
2017-05-10T05:50:30.291Z,5.14
2017-05-10T05:52:59.624Z,6.46
2017-05-10T05:55:28.600Z,9.68
2017-05-10T05:57:57.595Z,6.00
2017-05-10T06:00:27.166Z,6.80
2017-05-10T06:02:56.119Z,5.34
2017-05-10T06:05:25.076Z,4.68
2017-05-10T06:07:54.497Z,3.82
2017-05-10T06:10:23.492Z,6.58
2017-05-10T06:12:52.460Z,14.36
2017-05-10T06:15:21.815Z,11.68
2017-05-10T06:17:51.495Z,7.14
2017-05-10T06:20:20.464Z,5.62
2017-05-10T06:22:49.694Z,6.08
2017-05-10T06:25:18.631Z,10.90
2017-05-10T06:27:47.572Z,16.54
2017-05-10T06:30:16.989Z,8.78
2017-05-10T06:32:45.941Z,10.88
2017-05-10T06:35:14.910Z,4.40
2017-05-10T06:37:44.263Z,5.48
2017-05-10T06:40:13.255Z,7.08
2017-05-10T06:42:42.235Z,3.68
2017-05-10T06:45:11.563Z,7.70
2017-05-10T06:47:41.310Z,5.46
2017-05-10T06:50:10.283Z,7.24
2017-05-10T06:52:39.578Z,8.80
2017-05-10T06:55:09.275Z,11.20
2017-05-10T06:57:39.004Z,10.82
2017-05-10T07:00:08.306Z,4.56
2017-05-10T07:02:37.270Z,4.82
2017-05-10T07:05:06.974Z,2.94
2017-05-10T07:07:37.072Z,3.78
2017-05-10T07:10:06.043Z,17.40
2017-05-10T07:12:34.999Z,9.34
2017-05-10T07:15:04.254Z,6.10
2017-05-10T07:17:33.444Z,6.94
2017-05-10T07:20:02.374Z,3.20
2017-05-10T07:22:32.414Z,2.94
2017-05-10T07:25:01.372Z,2.74
2017-05-10T07:27:31.090Z,2.34
2017-05-10T07:30:01.274Z,3.02
2017-05-10T07:32:30.233Z,2.46
2017-05-10T07:34:59.265Z,2.32
2017-05-10T07:37:28.531Z,4.22
2017-05-10T07:39:57.499Z,3.70
2017-05-10T07:42:26.460Z,0.90
2017-05-10T07:44:55.835Z,1.48
2017-05-10T07:47:24.819Z,1.82
2017-05-10T07:49:53.796Z,3.10
2017-05-10T07:52:23.272Z,1.24
2017-05-10T07:54:52.993Z,4.08
2017-05-10T07:57:21.976Z,2.30
2017-05-10T07:59:51.447Z,4.52
2017-05-10T08:02:20.427Z,1.12
2017-05-10T08:04:49.421Z,1.46
2017-05-10T08:07:18.703Z,2.64
2017-05-10T08:09:47.650Z,0.94
2017-05-10T08:12:17.390Z,1.60
2017-05-10T08:14:46.744Z,4.44
2017-05-10T08:17:16.454Z,4.90
2017-05-10T08:19:46.457Z,3.12
2017-05-10T08:22:15.415Z,4.34
2017-05-10T08:24:44.402Z,2.94
2017-05-10T08:27:13.644Z,5.60
2017-05-10T08:29:44.059Z,15.10
2017-05-10T08:32:13.010Z,8.96
2017-05-10T08:34:42.375Z,6.62
2017-05-10T08:37:12.083Z,7.90
2017-05-10T08:39:41.816Z,5.48
2017-05-10T08:42:11.204Z,9.70
2017-05-10T08:44:40.175Z,5.32
2017-05-10T08:47:09.859Z,14.68
2017-05-10T08:49:39.253Z,4.74
2017-05-10T08:52:08.206Z,5.88
2017-05-10T08:54:37.172Z,6.68
2017-05-10T08:57:07.161Z,4.00
2017-05-10T08:59:36.114Z,10.14
2017-05-10T09:02:05.062Z,7.52
2017-05-10T09:04:34.469Z,3.78
2017-05-10T09:07:03.407Z,10.24
2017-05-10T09:09:32.411Z,14.32
2017-05-10T09:12:01.652Z,9.58
2017-05-10T09:14:31.346Z,2.68
2017-05-10T09:17:00.306Z,6.28
2017-05-10T09:19:29.759Z,5.62
2017-05-10T09:21:58.775Z,2.62
2017-05-10T09:24:27.723Z,4.92
2017-05-10T09:26:57.233Z,4.28
2017-05-10T09:29:26.468Z,4.50
2017-05-10T09:31:55.406Z,4.72
2017-05-10T09:34:24.707Z,4.58
2017-05-10T09:36:53.659Z,3.64
2017-05-10T09:39:22.649Z,1.82
2017-05-10T09:41:52.016Z,3.10
2017-05-10T09:44:21.774Z,1.88
2017-05-10T09:46:50.747Z,3.16
2017-05-10T09:49:19.984Z,2.10
2017-05-10T09:51:48.936Z,1.74
2017-05-10T09:54:17.908Z,6.72
2017-05-10T09:56:47.205Z,2.94
2017-05-10T09:59:17.071Z,1.06
2017-05-10T10:01:46.045Z,1.02
2017-05-10T10:04:15.347Z,1.44
2017-05-10T10:06:44.300Z,1.46
2017-05-10T10:09:13.271Z,0.98
2017-05-10T10:11:42.575Z,1.92
2017-05-10T10:14:12.269Z,3.08
2017-05-10T10:16:41.274Z,2.66
2017-05-10T10:19:10.578Z,4.50
2017-05-10T10:21:39.510Z,2.14
2017-05-10T10:24:08.464Z,2.52
2017-05-10T10:26:38.510Z,3.64
2017-05-10T10:29:07.609Z,4.50
2017-05-10T10:31:36.578Z,4.52
2017-05-10T10:34:06.601Z,2.74
2017-05-10T10:36:35.560Z,2.20
2017-05-10T10:39:04.554Z,7.44
2017-05-10T10:41:33.858Z,1.40
2017-05-10T10:44:03.584Z,1.60
2017-05-10T10:46:33.691Z,1.30
2017-05-10T10:49:03.472Z,3.16
2017-05-10T10:51:32.441Z,1.90
2017-05-10T10:54:01.735Z,1.70
2017-05-10T10:56:30.711Z,1.90
2017-05-10T10:58:59.695Z,1.84
2017-05-10T11:01:29.025Z,2.22
2017-05-10T11:03:57.978Z,2.70
2017-05-10T11:06:27.695Z,3.60
2017-05-10T11:08:57.241Z,1.52
2017-05-10T11:11:26.208Z,1.84
2017-05-10T11:13:55.131Z,2.24
2017-05-10T11:16:24.542Z,5.32
2017-05-10T11:18:53.528Z,8.04
2017-05-10T11:21:22.511Z,3.08
2017-05-10T11:23:51.843Z,1.96
2017-05-10T11:26:21.523Z,11.24
2017-05-10T11:28:50.622Z,2.10
2017-05-10T11:31:19.921Z,3.16
2017-05-10T11:33:48.901Z,3.22
2017-05-10T11:36:17.837Z,2.30
2017-05-10T11:38:47.949Z,2.48
2017-05-10T11:41:17.724Z,1.90
2017-05-10T11:43:46.704Z,3.18
2017-05-10T11:46:16.049Z,0.96
2017-05-10T11:48:45.798Z,2.44
2017-05-10T11:51:14.781Z,2.10
2017-05-10T11:53:44.167Z,1.14
2017-05-10T11:56:13.112Z,1.38
2017-05-10T11:58:42.144Z,5.28
2017-05-10T12:01:12.159Z,2.80
2017-05-10T12:03:56.653Z,3.26
2017-05-10T12:06:26.216Z,0.60
2017-05-10T12:08:56.053Z,1.04
2017-05-10T12:11:25.067Z,1.06
2017-05-10T12:13:54.528Z,3.94
2017-05-10T12:16:24.285Z,1.32
2017-05-10T12:18:53.294Z,1.28
2017-05-10T12:21:22.634Z,1.52
2017-05-10T12:24:16.074Z,6.88
2017-05-10T12:26:45.498Z,1.18
2017-05-10T12:29:15.311Z,3.76
2017-05-10T12:31:45.063Z,1.54
2017-05-10T12:34:15.139Z,2.46
2017-05-10T12:36:44.971Z,1.36
2017-05-10T12:39:13.996Z,1.20
2017-05-10T12:41:43.433Z,4.38
2017-05-10T12:44:12.442Z,3.02
2017-05-10T12:46:41.509Z,1.60
2017-05-10T12:49:10.924Z,2.80
2017-05-10T12:51:40.005Z,2.22
2017-05-10T12:54:09.729Z,3.14
2017-05-10T12:56:39.863Z,0.82
2017-05-10T12:59:08.868Z,6.90
2017-05-10T13:01:37.913Z,1.60
2017-05-10T13:04:07.283Z,0.78
2017-05-10T13:06:36.328Z,2.02
2017-05-10T13:09:06.077Z,1.68
2017-05-10T13:11:35.476Z,3.36
2017-05-10T13:14:04.502Z,1.12
2017-05-10T13:16:33.508Z,2.80
2017-05-10T13:19:02.930Z,2.12
2017-05-10T13:21:32.810Z,2.16
2017-05-10T13:24:01.803Z,4.96
2017-05-10T13:26:31.244Z,1.28
2017-05-10T13:29:00.980Z,1.58
2017-05-10T13:31:29.950Z,7.68
2017-05-10T13:33:59.214Z,6.56
2017-05-10T13:36:28.208Z,3.38
2017-05-10T13:38:57.188Z,0.70
2017-05-10T13:41:26.638Z,3.74
2017-05-10T13:43:55.617Z,0.62
2017-05-10T13:46:25.392Z,0.70
2017-05-10T13:48:54.745Z,2.78
2017-05-10T13:51:23.835Z,1.62
2017-05-10T13:53:52.796Z,2.10
2017-05-10T13:56:22.130Z,1.50
2017-05-10T13:58:51.171Z,2.38
2017-05-10T14:01:20.976Z,2.66
2017-05-10T14:03:50.313Z,3.14
2017-05-10T14:06:20.013Z,2.38
2017-05-10T14:08:49.041Z,3.86
2017-05-10T14:11:18.409Z,2.44
2017-05-10T14:13:47.396Z,2.46
2017-05-10T14:16:16.412Z,4.14
2017-05-10T14:18:45.803Z,6.88
2017-05-10T14:21:15.521Z,4.46
2017-05-10T14:23:45.715Z,8.58
2017-05-10T14:26:14.781Z,1.60
2017-05-10T14:28:43.754Z,2.00
2017-05-10T14:31:13.007Z,5.76
2017-05-10T14:33:41.985Z,9.62
2017-05-10T14:36:10.948Z,1.74
2017-05-10T14:38:40.300Z,3.84
2017-05-10T14:41:10.150Z,1.62
2017-05-10T14:43:39.130Z,2.82
2017-05-10T14:46:08.406Z,2.88
2017-05-10T14:48:38.134Z,2.40
2017-05-10T14:51:07.103Z,6.52
2017-05-10T14:53:37.144Z,2.08
2017-05-10T14:56:06.120Z,2.34
2017-05-10T14:58:35.117Z,5.32
2017-05-10T15:01:04.509Z,2.52
2017-05-10T15:03:34.214Z,1.60
2017-05-10T15:06:03.987Z,1.68
2017-05-10T15:08:33.308Z,2.52
2017-05-10T15:11:02.358Z,2.30
2017-05-10T15:13:31.334Z,3.06
2017-05-10T15:16:01.273Z,2.98
2017-05-10T15:18:30.212Z,3.96
2017-05-10T15:20:59.965Z,2.62
2017-05-10T15:23:29.320Z,3.40
2017-05-10T15:25:59.054Z,1.70
2017-05-10T15:28:28.053Z,1.64
2017-05-10T15:30:57.487Z,8.96
2017-05-10T15:33:27.250Z,2.18
2017-05-10T15:35:56.213Z,3.58
2017-05-10T15:38:25.567Z,3.28
2017-05-10T15:40:54.576Z,4.48
2017-05-10T15:43:23.578Z,2.12
2017-05-10T15:45:53.024Z,2.50
2017-05-10T15:48:22.014Z,2.70
2017-05-10T15:50:51.710Z,4.96
2017-05-10T15:53:21.255Z,4.74
2017-05-10T15:55:50.259Z,5.22
2017-05-10T15:58:19.258Z,2.18
2017-05-10T16:00:48.637Z,5.38
2017-05-10T16:03:17.632Z,2.60
2017-05-10T16:05:46.595Z,3.20
2017-05-10T16:08:16.704Z,6.96
2017-05-10T16:10:46.439Z,2.60
2017-05-10T16:13:15.429Z,3.80
2017-05-10T16:15:44.813Z,4.62
2017-05-10T16:18:14.522Z,4.00
2017-05-10T16:20:43.546Z,2.26
2017-05-10T16:23:12.904Z,2.70
2017-05-10T16:25:41.848Z,2.56
2017-05-10T16:28:10.846Z,3.94
2017-05-10T16:30:40.295Z,2.40
2017-05-10T16:33:09.278Z,3.86
2017-05-10T16:35:38.347Z,3.94
2017-05-10T16:38:07.654Z,7.94
2017-05-10T16:40:36.739Z,2.78
2017-05-10T16:43:05.820Z,2.92
2017-05-10T16:45:35.278Z,3.42
2017-05-10T16:48:04.271Z,3.04
2017-05-10T16:50:33.987Z,22.14
2017-05-10T16:53:04.191Z,5.66
2017-05-10T16:55:33.168Z,4.10
2017-05-10T16:58:02.209Z,4.76
2017-05-10T17:00:31.680Z,4.00
2017-05-10T17:03:00.633Z,4.22
2017-05-10T17:05:29.666Z,5.14
2017-05-10T17:07:59.016Z,4.58
2017-05-10T17:10:28.267Z,5.68
2017-05-10T17:12:57.247Z,3.62
2017-05-10T17:15:26.657Z,6.18
2017-05-10T17:17:56.380Z,16.88
2017-05-10T17:20:25.381Z,6.32
2017-05-10T17:22:54.778Z,4.02
2017-05-10T17:25:24.159Z,3.52
2017-05-10T17:27:53.107Z,6.86
2017-05-10T17:30:23.288Z,6.50
2017-05-10T17:32:52.999Z,8.74
2017-05-10T17:35:22.138Z,10.16
2017-05-10T17:37:51.699Z,5.96
2017-05-10T17:40:20.709Z,4.62
2017-05-10T17:42:49.717Z,6.54
2017-05-10T17:45:19.026Z,9.02
2017-05-10T17:47:48.112Z,4.56
2017-05-10T17:50:17.233Z,8.12
2017-05-10T17:52:46.531Z,10.32
2017-05-10T17:55:16.247Z,9.10
2017-05-10T17:57:45.313Z,8.78
2017-05-10T18:00:14.676Z,7.74
2017-05-10T18:02:43.767Z,9.50
2017-05-10T18:05:12.800Z,3.62
2017-05-10T18:07:42.198Z,4.84
2017-05-10T18:10:11.219Z,5.42
2017-05-10T18:12:40.212Z,4.10
2017-05-10T18:15:09.582Z,7.12
2017-05-10T18:17:38.609Z,6.62
2017-05-10T18:20:07.585Z,13.78
2017-05-10T18:22:36.926Z,11.72
2017-05-10T18:25:06.639Z,9.26
2017-05-10T18:27:35.598Z,5.98
2017-05-10T18:30:05.108Z,10.94
2017-05-10T18:32:34.947Z,7.40
2017-05-10T18:35:03.966Z,5.88
2017-05-10T18:37:33.458Z,8.42
2017-05-10T18:40:02.474Z,8.68
2017-05-10T18:42:31.474Z,5.24
2017-05-10T18:45:00.851Z,5.98
2017-05-10T18:47:29.880Z,6.20
2017-05-10T18:49:58.875Z,22.70
2017-05-10T18:52:28.372Z,11.50
2017-05-10T18:54:57.456Z,5.58
2017-05-10T18:57:27.138Z,6.54
2017-05-10T18:59:56.582Z,8.68
2017-05-10T19:02:25.684Z,5.86
2017-05-10T19:04:54.786Z,8.88
2017-05-10T19:07:24.221Z,7.22
2017-05-10T19:09:53.345Z,7.54
2017-05-10T19:12:22.432Z,5.48
2017-05-10T19:14:51.954Z,8.08
2017-05-10T19:17:21.090Z,4.16
2017-05-10T19:19:50.179Z,8.58
2017-05-10T19:22:19.597Z,6.94
2017-05-10T19:24:48.665Z,10.16
2017-05-10T19:27:17.721Z,7.66
2017-05-10T19:29:47.182Z,11.18
2017-05-10T19:32:16.258Z,8.58
2017-05-10T19:34:46.113Z,5.92
2017-05-10T19:37:15.542Z,4.84
2017-05-10T19:39:44.645Z,12.50
2017-05-10T19:42:13.724Z,5.70
2017-05-10T19:44:43.136Z,15.56
2017-05-10T19:47:12.176Z,8.44
2017-05-10T19:49:41.963Z,10.22
2017-05-10T19:52:11.524Z,11.48
2017-05-10T19:54:41.219Z,10.02
2017-05-10T19:57:10.262Z,10.10
2017-05-10T19:59:39.759Z,19.36
2017-05-10T20:02:08.853Z,5.22
2017-05-10T20:04:37.894Z,5.68
2017-05-10T20:07:07.334Z,7.46
2017-05-10T20:09:36.357Z,9.02
2017-05-10T20:12:05.350Z,12.96
2017-05-10T20:14:34.715Z,14.88
2017-05-10T20:17:03.723Z,11.00
2017-05-10T20:19:32.786Z,18.64
2017-05-10T20:22:02.273Z,10.34
2017-05-10T20:24:31.416Z,8.62
2017-05-10T20:27:00.432Z,10.34
2017-05-10T20:29:29.874Z,11.24
2017-05-10T20:31:58.924Z,9.64
2017-05-10T20:34:27.894Z,12.26
2017-05-10T20:36:57.195Z,11.42
2017-05-10T20:39:26.245Z,16.30
2017-05-10T20:41:55.226Z,7.54
2017-05-10T20:44:24.176Z,8.22
2017-05-10T20:46:53.208Z,10.58
2017-05-10T20:49:22.620Z,9.62
2017-05-10T20:51:51.674Z,16.94
2017-05-10T20:54:20.738Z,8.42
2017-05-10T20:56:49.731Z,8.94
2017-05-10T20:59:18.684Z,16.12
2017-05-10T21:01:48.441Z,8.12
2017-05-10T21:04:17.455Z,9.42
2017-05-10T21:06:46.892Z,22.66
2017-05-10T21:09:15.865Z,12.06
2017-05-10T21:11:45.615Z,11.24
2017-05-10T21:14:15.188Z,13.94
2017-05-10T21:16:44.927Z,12.76
2017-05-10T21:19:13.903Z,9.76
2017-05-10T21:21:43.360Z,16.90
2017-05-10T21:24:12.359Z,10.62
2017-05-10T21:26:41.327Z,11.80
2017-05-10T21:29:10.658Z,22.28
2017-05-10T21:31:39.624Z,11.42
2017-05-10T21:34:08.768Z,10.92
2017-05-10T21:36:38.920Z,14.82
2017-05-10T21:39:07.866Z,11.78
2017-05-10T21:41:37.592Z,10.72
2017-05-10T21:44:07.007Z,13.24
2017-05-10T21:46:35.958Z,9.76
2017-05-10T21:49:04.904Z,14.30
2017-05-10T21:51:34.209Z,12.36
2017-05-10T21:54:03.175Z,16.40
2017-05-10T21:56:32.124Z,16.74
2017-05-10T21:59:01.134Z,14.92
2017-05-10T22:01:30.851Z,23.66
2017-05-10T22:04:00.566Z,16.82
2017-05-10T22:06:29.581Z,15.78
2017-05-10T22:08:58.933Z,13.94
2017-05-10T22:11:27.871Z,15.30
2017-05-10T22:13:56.863Z,13.98
2017-05-10T22:16:26.223Z,16.52
2017-05-10T22:18:55.355Z,19.22
2017-05-10T22:21:24.307Z,13.38
2017-05-10T22:23:53.636Z,18.16
2017-05-10T22:26:22.611Z,16.12
2017-05-10T22:28:51.587Z,12.52
2017-05-10T22:31:21.159Z,12.56
2017-05-10T22:33:50.228Z,13.50
2017-05-10T22:36:19.183Z,20.18
2017-05-10T22:38:48.621Z,13.56
2017-05-10T22:41:17.570Z,11.66
2017-05-10T22:43:46.668Z,14.54
2017-05-10T22:46:15.990Z,18.36
2017-05-10T22:48:44.994Z,21.04
2017-05-10T22:51:13.981Z,16.98
2017-05-10T22:53:43.380Z,14.68
2017-05-10T22:56:12.373Z,12.64
2017-05-10T22:58:41.322Z,16.32
2017-05-10T23:01:10.618Z,18.74
2017-05-10T23:03:39.674Z,12.86
2017-05-10T23:06:08.688Z,13.26
2017-05-10T23:08:38.200Z,15.36
2017-05-10T23:11:07.158Z,14.12
2017-05-10T23:13:36.106Z,15.84
2017-05-10T23:16:05.390Z,15.34
2017-05-10T23:18:34.395Z,15.52
2017-05-10T23:21:03.330Z,13.02
2017-05-10T23:23:32.571Z,16.38
2017-05-10T23:26:01.521Z,11.92
2017-05-10T23:28:30.557Z,22.12
2017-05-10T23:30:59.885Z,22.12
2017-05-10T23:33:29.647Z,19.50
2017-05-10T23:35:58.602Z,20.14
2017-05-10T23:38:27.612Z,16.02
2017-05-10T23:40:56.615Z,16.16
2017-05-10T23:43:25.638Z,19.30
2017-05-10T23:45:54.652Z,16.50
2017-05-10T23:48:23.586Z,11.06
2017-05-10T23:50:52.583Z,14.40
2017-05-10T23:53:21.633Z,17.42
2017-05-10T23:55:50.596Z,16.38
2017-05-10T23:58:19.591Z,20.82
